createdAt,value
2017-02-20T00:00:37.122Z,0
2017-02-20T00:01:36.699Z,0
2017-02-20T00:02:37.591Z,0
2017-02-20T00:03:37.446Z,0
2017-02-20T00:04:37.018Z,0
2017-02-20T00:05:36.636Z,0
2017-02-20T00:06:36.584Z,0
2017-02-20T00:07:37.383Z,0
2017-02-20T00:08:36.941Z,0
2017-02-20T00:09:36.535Z,0
2017-02-20T00:10:36.893Z,0
2017-02-20T00:11:36.878Z,0
2017-02-20T00:12:37.241Z,0
2017-02-20T00:13:37.216Z,0
2017-02-20T00:14:37.271Z,0
2017-02-20T00:15:36.810Z,0
2017-02-20T00:16:36.370Z,0
2017-02-20T00:17:36.749Z,0
2017-02-20T00:18:36.749Z,0
2017-02-20T00:19:36.710Z,0
2017-02-20T00:20:36.667Z,0
2017-02-20T00:21:36.686Z,0
2017-02-20T00:22:36.633Z,0
2017-02-20T00:23:36.616Z,0
2017-02-20T00:24:35.786Z,0
2017-02-20T00:25:36.544Z,0
2017-02-20T00:26:36.547Z,0
2017-02-20T00:27:36.894Z,0
2017-02-20T00:28:36.104Z,0
2017-02-20T00:29:36.083Z,0
2017-02-20T00:30:36.430Z,0
2017-02-20T00:31:36.404Z,0
2017-02-20T00:32:36.454Z,0
2017-02-20T00:33:36.387Z,0
2017-02-20T00:34:35.970Z,0
2017-02-20T00:35:36.709Z,0
2017-02-20T00:36:36.417Z,0
2017-02-20T00:37:35.917Z,0
2017-02-20T00:38:36.297Z,0
2017-02-20T00:39:36.751Z,0
2017-02-20T00:40:36.698Z,0
2017-02-20T00:41:35.800Z,0
2017-02-20T00:42:36.605Z,0
2017-02-20T00:43:36.545Z,0
2017-02-20T00:44:36.511Z,0
2017-02-20T00:45:35.709Z,0
2017-02-20T00:46:36.496Z,0
2017-02-20T00:47:36.055Z,0
2017-02-20T00:48:36.472Z,0
2017-02-20T00:49:36.398Z,0
2017-02-20T00:50:35.691Z,0
2017-02-20T00:51:35.182Z,0
2017-02-20T00:52:35.621Z,0
2017-02-20T00:53:36.307Z,0
2017-02-20T00:54:36.289Z,0
2017-02-20T00:55:36.289Z,0
2017-02-20T00:56:36.289Z,0
2017-02-20T00:57:36.217Z,0
2017-02-20T00:58:36.224Z,0
2017-02-20T00:59:35.397Z,0
2017-02-20T01:00:36.216Z,0
2017-02-20T01:01:36.195Z,0
2017-02-20T01:02:36.136Z,0
2017-02-20T01:03:35.715Z,0
2017-02-20T01:04:35.688Z,0
2017-02-20T01:05:35.703Z,0
2017-02-20T01:06:35.632Z,0
2017-02-20T01:07:36.043Z,0
2017-02-20T01:08:35.961Z,0
2017-02-20T01:09:35.681Z,0
2017-02-20T01:10:35.935Z,0
2017-02-20T01:11:35.610Z,0
2017-02-20T01:12:35.896Z,0
2017-02-20T01:13:35.940Z,0
2017-02-20T01:14:35.467Z,0
2017-02-20T01:15:35.047Z,0
2017-02-20T01:16:35.798Z,0
2017-02-20T01:17:35.017Z,0
2017-02-20T01:18:34.979Z,0
2017-02-20T01:19:35.335Z,0
2017-02-20T01:20:34.936Z,0
2017-02-20T01:21:35.316Z,0
2017-02-20T01:22:35.270Z,0
2017-02-20T01:23:35.694Z,0
2017-02-20T01:24:35.233Z,0
2017-02-20T01:25:34.424Z,0
2017-02-20T01:26:35.577Z,0
2017-02-20T01:27:35.181Z,0
2017-02-20T01:28:35.601Z,0
2017-02-20T01:29:35.547Z,0
2017-02-20T01:30:35.534Z,0
2017-02-20T01:31:35.470Z,0
2017-02-20T01:32:34.674Z,0
2017-02-20T01:33:34.637Z,0
2017-02-20T01:34:35.011Z,0
2017-02-20T01:35:34.629Z,0
2017-02-20T01:36:34.180Z,0
2017-02-20T01:37:34.595Z,0
2017-02-20T01:38:35.366Z,0
2017-02-20T01:39:34.902Z,0
2017-02-20T01:40:34.893Z,0
2017-02-20T01:41:35.265Z,0
2017-02-20T01:42:34.447Z,0
2017-02-20T01:43:34.801Z,0
2017-02-20T01:44:35.182Z,0
2017-02-20T01:45:34.371Z,0
2017-02-20T01:46:34.746Z,0
2017-02-20T01:47:35.157Z,0
2017-02-20T01:48:34.314Z,0
2017-02-20T01:49:34.279Z,0
2017-02-20T01:50:35.027Z,0
2017-02-20T01:51:34.250Z,0
2017-02-20T01:52:34.618Z,0
2017-02-20T01:53:34.988Z,0
2017-02-20T01:54:34.576Z,0
2017-02-20T01:55:33.756Z,0
2017-02-20T01:56:34.932Z,0
2017-02-20T01:57:34.104Z,0
2017-02-20T01:58:34.096Z,0
2017-02-20T01:59:33.652Z,0
2017-02-20T02:00:34.423Z,0
2017-02-20T02:01:34.390Z,0
2017-02-20T02:02:34.782Z,0
2017-02-20T02:03:34.353Z,0
2017-02-20T02:04:33.951Z,0
2017-02-20T02:05:34.321Z,0
2017-02-20T02:06:34.687Z,0
2017-02-20T02:07:33.878Z,0
2017-02-20T02:08:33.469Z,0
2017-02-20T02:09:34.616Z,0
2017-02-20T02:10:34.205Z,0
2017-02-20T02:11:34.175Z,0
2017-02-20T02:12:34.548Z,0
2017-02-20T02:13:33.377Z,0
2017-02-20T02:14:34.135Z,0
2017-02-20T02:15:33.697Z,0
2017-02-20T02:16:34.073Z,0
2017-02-20T02:17:34.442Z,0
2017-02-20T02:18:34.030Z,0
2017-02-20T02:19:33.994Z,0
2017-02-20T02:20:33.598Z,0
2017-02-20T02:21:34.030Z,0
2017-02-20T02:22:33.553Z,0
2017-02-20T02:23:33.551Z,0
2017-02-20T02:24:34.276Z,0
2017-02-20T02:25:33.878Z,0
2017-02-20T02:26:33.846Z,0
2017-02-20T02:27:33.903Z,0
2017-02-20T02:28:33.817Z,0
2017-02-20T02:29:33.468Z,0
2017-02-20T02:30:33.757Z,0
2017-02-20T02:31:34.107Z,0
2017-02-20T02:32:34.118Z,0
2017-02-20T02:33:34.106Z,0
2017-02-20T02:34:33.692Z,0
2017-02-20T02:35:33.635Z,0
2017-02-20T02:36:34.023Z,0
2017-02-20T02:37:33.983Z,0
2017-02-20T02:38:33.210Z,0
2017-02-20T02:39:33.244Z,0
2017-02-20T02:40:33.937Z,0
2017-02-20T02:41:33.501Z,0
2017-02-20T02:42:33.882Z,0
2017-02-20T02:43:33.474Z,0
2017-02-20T02:44:33.851Z,0
2017-02-20T02:45:33.540Z,0
2017-02-20T02:46:33.420Z,0
2017-02-20T02:47:33.788Z,0
2017-02-20T02:48:33.359Z,0
2017-02-20T02:49:33.327Z,0
2017-02-20T02:50:32.926Z,0
2017-02-20T02:51:33.317Z,0
2017-02-20T02:52:33.282Z,0
2017-02-20T02:53:33.257Z,0
2017-02-20T02:54:33.606Z,0
2017-02-20T02:55:33.195Z,0
2017-02-20T02:56:33.180Z,0
2017-02-20T02:57:33.155Z,0
2017-02-20T02:58:33.530Z,0
2017-02-20T02:59:33.122Z,0
2017-02-20T03:00:33.501Z,0
2017-02-20T03:01:33.454Z,0
2017-02-20T03:02:33.049Z,0
2017-02-20T03:03:33.421Z,0
2017-02-20T03:04:33.390Z,0
2017-02-20T03:05:32.608Z,0
2017-02-20T03:06:33.349Z,0
2017-02-20T03:07:32.938Z,0
2017-02-20T03:08:32.934Z,0
2017-02-20T03:09:32.927Z,0
2017-02-20T03:10:33.257Z,0
2017-02-20T03:11:33.375Z,0
2017-02-20T03:12:32.817Z,0
2017-02-20T03:13:33.184Z,0
2017-02-20T03:14:32.782Z,0
2017-02-20T03:15:32.874Z,0
2017-02-20T03:16:32.333Z,0
2017-02-20T03:17:33.135Z,0
2017-02-20T03:18:31.910Z,0
2017-02-20T03:19:32.398Z,0
2017-02-20T03:20:32.631Z,0
2017-02-20T03:21:33.121Z,0
2017-02-20T03:22:33.070Z,0
2017-02-20T03:23:33.082Z,0
2017-02-20T03:24:32.147Z,0
2017-02-20T03:25:32.980Z,0
2017-02-20T03:26:32.911Z,0
2017-02-20T03:27:32.538Z,0
2017-02-20T03:28:32.079Z,0
2017-02-20T03:29:32.444Z,0
2017-02-20T03:30:31.756Z,0
2017-02-20T03:31:32.425Z,0
2017-02-20T03:32:32.397Z,0
2017-02-20T03:33:32.414Z,0
2017-02-20T03:34:31.564Z,0
2017-02-20T03:35:32.013Z,0
2017-02-20T03:36:31.913Z,0
2017-02-20T03:37:32.263Z,0
2017-02-20T03:38:32.679Z,0
2017-02-20T03:39:32.632Z,0
2017-02-20T03:40:31.811Z,0
2017-02-20T03:41:31.780Z,0
2017-02-20T03:42:31.789Z,0
2017-02-20T03:43:31.738Z,0
2017-02-20T03:44:32.513Z,0
2017-02-20T03:45:32.089Z,0
2017-02-20T03:46:31.778Z,0
2017-02-20T03:47:32.136Z,0
2017-02-20T03:48:31.647Z,0
2017-02-20T03:49:32.036Z,0
2017-02-20T03:50:31.575Z,0
2017-02-20T03:51:32.351Z,0
2017-02-20T03:52:31.164Z,0
2017-02-20T03:53:31.623Z,0
2017-02-20T03:54:31.933Z,0
2017-02-20T03:55:31.166Z,0
2017-02-20T03:56:32.241Z,0
2017-02-20T03:57:31.462Z,0
2017-02-20T03:58:31.469Z,0
2017-02-20T03:59:31.773Z,0
2017-02-20T04:00:31.801Z,0
2017-02-20T04:01:31.348Z,0
2017-02-20T04:02:32.128Z,0
2017-02-20T04:03:31.288Z,0
2017-02-20T04:04:31.659Z,0
2017-02-20T04:05:31.256Z,0
2017-02-20T04:06:31.986Z,0
2017-02-20T04:07:31.198Z,0
2017-02-20T04:08:31.585Z,0
2017-02-20T04:09:31.551Z,0
2017-02-20T04:10:31.165Z,0
2017-02-20T04:11:31.125Z,0
2017-02-20T04:12:31.577Z,0
2017-02-20T04:13:31.864Z,0
2017-02-20T04:14:31.846Z,0
2017-02-20T04:15:31.427Z,0
2017-02-20T04:16:31.408Z,0
2017-02-20T04:17:31.394Z,0
2017-02-20T04:18:30.583Z,0
2017-02-20T04:19:31.716Z,0
2017-02-20T04:20:30.916Z,0
2017-02-20T04:21:31.729Z,0
2017-02-20T04:22:31.256Z,0
2017-02-20T04:23:31.235Z,0
2017-02-20T04:24:31.238Z,0
2017-02-20T04:25:31.205Z,0
2017-02-20T04:26:30.780Z,0
2017-02-20T04:27:31.168Z,0
2017-02-20T04:28:31.125Z,0
2017-02-20T04:29:31.555Z,0
2017-02-20T04:30:30.708Z,0
2017-02-20T04:31:30.676Z,0
2017-02-20T04:32:30.655Z,0
2017-02-20T04:33:31.432Z,0
2017-02-20T04:34:31.004Z,0
2017-02-20T04:35:30.583Z,0
2017-02-20T04:36:30.970Z,0
2017-02-20T04:37:31.380Z,0
2017-02-20T04:38:31.341Z,0
2017-02-20T04:39:31.331Z,0
2017-02-20T04:40:31.312Z,0
2017-02-20T04:41:30.850Z,0
2017-02-20T04:42:30.849Z,0
2017-02-20T04:43:30.428Z,0
2017-02-20T04:44:31.210Z,0
2017-02-20T04:45:30.371Z,0
2017-02-20T04:46:30.354Z,0
2017-02-20T04:47:30.691Z,0
2017-02-20T04:48:31.101Z,0
2017-02-20T04:49:30.678Z,0
2017-02-20T04:50:30.655Z,0
2017-02-20T04:51:30.634Z,0
2017-02-20T04:52:30.620Z,0
2017-02-20T04:53:30.973Z,0
2017-02-20T04:54:30.954Z,0
2017-02-20T04:55:30.950Z,0
2017-02-20T04:56:30.510Z,0
2017-02-20T04:57:30.103Z,0
2017-02-20T04:58:30.471Z,0
2017-02-20T04:59:30.152Z,0
2017-02-20T05:00:30.823Z,0
2017-02-20T05:01:30.790Z,0
2017-02-20T05:02:29.600Z,0
2017-02-20T05:03:30.470Z,0
2017-02-20T05:04:29.930Z,0
2017-02-20T05:05:30.299Z,0
2017-02-20T05:06:29.503Z,0
2017-02-20T05:07:30.667Z,0
2017-02-20T05:08:29.866Z,0
2017-02-20T05:09:30.224Z,0
2017-02-20T05:10:30.197Z,0
2017-02-20T05:11:30.563Z,0
2017-02-20T05:12:30.546Z,0
2017-02-20T05:13:29.755Z,0
2017-02-20T05:14:30.122Z,0
2017-02-20T05:15:30.472Z,0
2017-02-20T05:16:30.071Z,0
2017-02-20T05:17:30.069Z,0
2017-02-20T05:18:29.784Z,0
2017-02-20T05:19:29.998Z,0
2017-02-20T05:20:29.615Z,0
2017-02-20T05:21:29.969Z,0
2017-02-20T05:22:29.567Z,0
2017-02-20T05:23:30.343Z,0
2017-02-20T05:24:29.622Z,0
2017-02-20T05:25:30.266Z,0
2017-02-20T05:26:29.076Z,0
2017-02-20T05:27:29.841Z,0
2017-02-20T05:28:30.219Z,0
2017-02-20T05:29:29.776Z,0
2017-02-20T05:30:29.776Z,0
2017-02-20T05:31:29.344Z,0
2017-02-20T05:32:29.333Z,0
2017-02-20T05:33:29.689Z,0
2017-02-20T05:34:29.658Z,0
2017-02-20T05:35:29.635Z,0
2017-02-20T05:36:29.626Z,0
2017-02-20T05:37:30.001Z,0
2017-02-20T05:38:29.620Z,0
2017-02-20T05:39:29.958Z,0
2017-02-20T05:40:29.652Z,0
2017-02-20T05:41:29.581Z,0
2017-02-20T05:42:29.877Z,0
2017-02-20T05:43:29.477Z,0
2017-02-20T05:44:29.453Z,0
2017-02-20T05:45:29.046Z,0
2017-02-20T05:46:29.405Z,0
2017-02-20T05:47:29.766Z,0
2017-02-20T05:48:29.777Z,0
2017-02-20T05:49:29.746Z,0
2017-02-20T05:50:29.302Z,0
2017-02-20T05:51:29.307Z,0
2017-02-20T05:52:29.287Z,0
2017-02-20T05:53:29.398Z,0
2017-02-20T05:54:29.657Z,0
2017-02-20T05:55:29.208Z,0
2017-02-20T05:56:29.199Z,0
2017-02-20T05:57:29.204Z,0
2017-02-20T05:58:29.180Z,0
2017-02-20T05:59:29.165Z,0
2017-02-20T06:00:29.159Z,0
2017-02-20T06:01:28.667Z,0
2017-02-20T06:02:29.478Z,0
2017-02-20T06:03:28.654Z,0
2017-02-20T06:04:28.647Z,0
2017-02-20T06:05:28.987Z,0
2017-02-20T06:06:29.025Z,0
2017-02-20T06:07:29.345Z,0
2017-02-20T06:08:29.363Z,0
2017-02-20T06:09:29.344Z,0
2017-02-20T06:10:28.886Z,0
2017-02-20T06:11:28.869Z,0
2017-02-20T06:12:29.389Z,0
2017-02-20T06:13:29.207Z,0
2017-02-20T06:14:28.478Z,0
2017-02-20T06:15:29.157Z,4
2017-02-20T06:16:29.190Z,4
2017-02-20T06:17:29.116Z,4
2017-02-20T06:18:28.799Z,4
2017-02-20T06:19:28.677Z,0
2017-02-20T06:20:28.703Z,4
2017-02-20T06:21:28.636Z,4
2017-02-20T06:22:29.013Z,8
2017-02-20T06:23:28.995Z,8
2017-02-20T06:24:28.593Z,4
2017-02-20T06:25:28.185Z,8
2017-02-20T06:26:28.960Z,8
2017-02-20T06:27:28.114Z,8
2017-02-20T06:28:28.554Z,8
2017-02-20T06:29:28.492Z,8
2017-02-20T06:30:28.897Z,12
2017-02-20T06:31:28.526Z,12
2017-02-20T06:32:28.497Z,12
2017-02-20T06:33:28.371Z,12
2017-02-20T06:34:28.350Z,16
2017-02-20T06:35:28.330Z,16
2017-02-20T06:36:28.292Z,20
2017-02-20T06:37:27.899Z,20
2017-02-20T06:38:28.260Z,24
2017-02-20T06:39:28.658Z,24
2017-02-20T06:40:28.610Z,24
2017-02-20T06:41:28.186Z,28
2017-02-20T06:42:28.176Z,32
2017-02-20T06:43:28.189Z,32
2017-02-20T06:44:28.505Z,36
2017-02-20T06:45:28.494Z,44
2017-02-20T06:46:28.479Z,52
2017-02-20T06:47:28.133Z,60
2017-02-20T06:48:27.778Z,56
2017-02-20T06:49:27.642Z,64
2017-02-20T06:50:27.991Z,72
2017-02-20T06:51:28.136Z,68
2017-02-20T06:52:28.354Z,76
2017-02-20T06:53:27.540Z,92
2017-02-20T06:54:28.290Z,108
2017-02-20T06:55:27.599Z,116
2017-02-20T06:56:28.267Z,124
2017-02-20T06:57:27.867Z,128
2017-02-20T06:58:28.330Z,136
2017-02-20T06:59:27.439Z,140
2017-02-20T07:00:26.984Z,128
2017-02-20T07:01:28.195Z,144
2017-02-20T07:02:27.349Z,140
2017-02-20T07:03:27.704Z,144
2017-02-20T07:04:28.106Z,144
2017-02-20T07:05:27.274Z,172
2017-02-20T07:06:27.277Z,172
2017-02-20T07:07:27.752Z,184
2017-02-20T07:08:27.597Z,180
2017-02-20T07:09:28.082Z,196
2017-02-20T07:10:27.173Z,184
2017-02-20T07:11:27.929Z,192
2017-02-20T07:12:27.520Z,208
2017-02-20T07:13:27.978Z,200
2017-02-20T07:14:27.528Z,228
2017-02-20T07:15:26.699Z,236
2017-02-20T07:16:27.503Z,220
2017-02-20T07:17:27.425Z,200
2017-02-20T07:18:26.984Z,196
2017-02-20T07:19:27.807Z,184
2017-02-20T07:20:27.735Z,208
2017-02-20T07:21:26.924Z,236
2017-02-20T07:22:27.353Z,256
2017-02-20T07:23:27.269Z,228
2017-02-20T07:24:26.872Z,220
2017-02-20T07:25:27.239Z,228
2017-02-20T07:26:27.214Z,220
2017-02-20T07:27:27.633Z,220
2017-02-20T07:28:27.150Z,232
2017-02-20T07:29:26.760Z,252
2017-02-20T07:30:27.258Z,240
2017-02-20T07:31:27.092Z,244
2017-02-20T07:32:27.081Z,252
2017-02-20T07:33:26.667Z,256
2017-02-20T07:34:27.037Z,256
2017-02-20T07:35:26.608Z,284
2017-02-20T07:36:26.987Z,292
2017-02-20T07:37:26.963Z,304
2017-02-20T07:38:26.941Z,328
2017-02-20T07:39:26.523Z,332
2017-02-20T07:40:26.916Z,308
2017-02-20T07:41:27.316Z,312
2017-02-20T07:42:26.855Z,296
2017-02-20T07:43:26.433Z,316
2017-02-20T07:44:26.807Z,400
2017-02-20T07:45:26.390Z,404
2017-02-20T07:46:26.751Z,360
2017-02-20T07:47:26.730Z,372
2017-02-20T07:48:26.339Z,384
2017-02-20T07:49:26.700Z,388
2017-02-20T07:50:26.699Z,376
2017-02-20T07:51:26.278Z,460
2017-02-20T07:52:26.248Z,440
2017-02-20T07:53:26.617Z,436
2017-02-20T07:54:26.607Z,408
2017-02-20T07:55:26.566Z,416
2017-02-20T07:56:26.165Z,440
2017-02-20T07:57:26.923Z,480
2017-02-20T07:58:26.114Z,508
2017-02-20T07:59:26.491Z,476
2017-02-20T08:00:26.087Z,528
2017-02-20T08:01:26.423Z,528
2017-02-20T08:02:26.429Z,524
2017-02-20T08:03:26.407Z,468
2017-02-20T08:04:26.377Z,472
2017-02-20T08:05:26.758Z,476
2017-02-20T08:06:26.472Z,408
2017-02-20T08:07:26.330Z,436
2017-02-20T08:08:25.903Z,452
2017-02-20T08:09:26.668Z,472
2017-02-20T08:10:25.919Z,496
2017-02-20T08:11:26.278Z,512
2017-02-20T08:12:26.198Z,540
2017-02-20T08:13:25.417Z,504
2017-02-20T08:14:26.197Z,516
2017-02-20T08:15:26.136Z,524
2017-02-20T08:16:26.105Z,524
2017-02-20T08:17:26.497Z,500
2017-02-20T08:18:25.683Z,548
2017-02-20T08:19:26.066Z,496
2017-02-20T08:20:26.414Z,540
2017-02-20T08:21:26.417Z,480
2017-02-20T08:22:25.593Z,436
2017-02-20T08:23:25.983Z,448
2017-02-20T08:24:25.613Z,492
2017-02-20T08:25:26.298Z,480
2017-02-20T08:26:26.288Z,496
2017-02-20T08:27:25.495Z,496
2017-02-20T08:28:25.839Z,620
2017-02-20T08:29:25.850Z,616
2017-02-20T08:30:26.238Z,532
2017-02-20T08:31:25.518Z,548
2017-02-20T08:32:25.832Z,500
2017-02-20T08:33:25.743Z,560
2017-02-20T08:34:26.107Z,536
2017-02-20T08:35:25.350Z,692
2017-02-20T08:36:25.684Z,588
2017-02-20T08:37:25.656Z,592
2017-02-20T08:38:26.024Z,576
2017-02-20T08:39:26.003Z,640
2017-02-20T08:40:25.590Z,528
2017-02-20T08:41:25.189Z,468
2017-02-20T08:42:25.169Z,504
2017-02-20T08:43:25.528Z,496
2017-02-20T08:44:25.891Z,480
2017-02-20T08:45:25.510Z,492
2017-02-20T08:46:25.469Z,508
2017-02-20T08:47:25.839Z,440
2017-02-20T08:48:25.777Z,456
2017-02-20T08:49:25.399Z,452
2017-02-20T08:50:25.762Z,488
2017-02-20T08:51:25.716Z,436
2017-02-20T08:52:25.735Z,452
2017-02-20T08:53:25.695Z,488
2017-02-20T08:54:25.286Z,460
2017-02-20T08:55:25.673Z,484
2017-02-20T08:56:25.614Z,496
2017-02-20T08:57:25.244Z,520
2017-02-20T08:58:25.611Z,524
2017-02-20T08:59:25.564Z,548
2017-02-20T09:00:25.164Z,540
2017-02-20T09:01:25.151Z,520
2017-02-20T09:02:25.115Z,532
2017-02-20T09:03:25.488Z,508
2017-02-20T09:04:25.092Z,488
2017-02-20T09:05:25.040Z,552
2017-02-20T09:06:25.010Z,632
2017-02-20T09:07:25.038Z,640
2017-02-20T09:08:24.598Z,624
2017-02-20T09:09:25.366Z,600
2017-02-20T09:10:24.155Z,680
2017-02-20T09:11:24.964Z,764
2017-02-20T09:12:24.875Z,676
2017-02-20T09:13:25.280Z,672
2017-02-20T09:14:24.860Z,624
2017-02-20T09:15:24.495Z,588
2017-02-20T09:16:24.801Z,540
2017-02-20T09:17:24.794Z,512
2017-02-20T09:18:25.152Z,520
2017-02-20T09:19:24.831Z,508
2017-02-20T09:20:24.328Z,508
2017-02-20T09:21:25.160Z,524
2017-02-20T09:22:25.063Z,536
2017-02-20T09:23:24.771Z,572
2017-02-20T09:24:24.639Z,580
2017-02-20T09:25:24.697Z,612
2017-02-20T09:26:24.197Z,624
2017-02-20T09:27:24.628Z,660
2017-02-20T09:28:24.941Z,656
2017-02-20T09:29:24.642Z,688
2017-02-20T09:30:24.546Z,716
2017-02-20T09:31:24.201Z,776
2017-02-20T09:32:24.077Z,872
2017-02-20T09:33:24.445Z,812
2017-02-20T09:34:24.823Z,752
2017-02-20T09:35:24.142Z,768
2017-02-20T09:36:24.485Z,800
2017-02-20T09:37:24.071Z,808
2017-02-20T09:38:24.402Z,788
2017-02-20T09:39:24.304Z,888
2017-02-20T09:40:24.299Z,980
2017-02-20T09:41:24.330Z,948
2017-02-20T09:42:23.855Z,880
2017-02-20T09:43:24.310Z,948
2017-02-20T09:44:24.656Z,996
2017-02-20T09:45:24.580Z,924
2017-02-20T09:46:24.673Z,852
2017-02-20T09:47:24.543Z,836
2017-02-20T09:48:24.113Z,776
2017-02-20T09:49:23.707Z,868
2017-02-20T09:50:24.459Z,852
2017-02-20T09:51:24.086Z,716
2017-02-20T09:52:23.665Z,760
2017-02-20T09:53:23.626Z,724
2017-02-20T09:54:23.993Z,728
2017-02-20T09:55:24.396Z,816
2017-02-20T09:56:24.484Z,808
2017-02-20T09:57:23.942Z,768
2017-02-20T09:58:23.913Z,800
2017-02-20T09:59:24.308Z,776
2017-02-20T10:00:23.475Z,900
2017-02-20T10:01:23.453Z,948
2017-02-20T10:02:23.475Z,960
2017-02-20T10:03:23.817Z,1060
2017-02-20T10:04:23.887Z,1036
2017-02-20T10:05:24.147Z,1080
2017-02-20T10:06:22.946Z,1036
2017-02-20T10:07:23.718Z,1004
2017-02-20T10:08:23.799Z,1040
2017-02-20T10:09:24.058Z,892
2017-02-20T10:10:23.655Z,928
2017-02-20T10:11:24.056Z,912
2017-02-20T10:12:23.582Z,904
2017-02-20T10:13:24.032Z,908
2017-02-20T10:14:24.004Z,948
2017-02-20T10:15:23.922Z,920
2017-02-20T10:16:23.119Z,976
2017-02-20T10:17:23.483Z,940
2017-02-20T10:18:23.068Z,984
2017-02-20T10:19:23.851Z,976
2017-02-20T10:20:23.859Z,1056
2017-02-20T10:21:23.408Z,1180
2017-02-20T10:22:22.997Z,1272
2017-02-20T10:23:23.366Z,1196
2017-02-20T10:24:23.776Z,1200
2017-02-20T10:25:22.923Z,1172
2017-02-20T10:26:23.736Z,1136
2017-02-20T10:27:23.284Z,1172
2017-02-20T10:28:23.293Z,1248
2017-02-20T10:29:23.633Z,1132
2017-02-20T10:30:23.837Z,1212
2017-02-20T10:31:23.197Z,1328
2017-02-20T10:32:23.582Z,1244
2017-02-20T10:33:23.542Z,1292
2017-02-20T10:34:23.140Z,1212
2017-02-20T10:35:23.103Z,1088
2017-02-20T10:36:23.471Z,1144
2017-02-20T10:37:23.531Z,1024
2017-02-20T10:38:22.654Z,928
2017-02-20T10:39:23.048Z,772
2017-02-20T10:40:23.457Z,768
2017-02-20T10:41:22.986Z,708
2017-02-20T10:42:22.582Z,804
2017-02-20T10:43:23.316Z,876
2017-02-20T10:44:23.412Z,1052
2017-02-20T10:45:23.280Z,1296
2017-02-20T10:46:23.329Z,1596
2017-02-20T10:47:22.545Z,1620
2017-02-20T10:48:22.813Z,1588
2017-02-20T10:49:23.205Z,1468
2017-02-20T10:50:22.401Z,1380
2017-02-20T10:51:22.756Z,1448
2017-02-20T10:52:22.771Z,1244
2017-02-20T10:53:22.318Z,1180
2017-02-20T10:54:22.709Z,1000
2017-02-20T10:55:23.061Z,1076
2017-02-20T10:56:23.075Z,876
2017-02-20T10:57:23.020Z,900
2017-02-20T10:58:23.021Z,880
2017-02-20T10:59:22.590Z,880
2017-02-20T11:00:22.972Z,744
2017-02-20T11:01:22.543Z,792
2017-02-20T11:02:22.149Z,808
2017-02-20T11:03:22.896Z,1112
2017-02-20T11:04:22.101Z,1204
2017-02-20T11:05:21.732Z,1312
2017-02-20T11:06:22.454Z,1180
2017-02-20T11:07:22.432Z,1364
2017-02-20T11:08:22.402Z,1216
2017-02-20T11:09:22.759Z,1352
2017-02-20T11:10:22.773Z,1276
2017-02-20T11:11:22.358Z,1240
2017-02-20T11:12:22.318Z,1424
2017-02-20T11:13:21.917Z,1448
2017-02-20T11:14:22.277Z,1236
2017-02-20T11:15:22.634Z,1292
2017-02-20T11:16:22.301Z,1260
2017-02-20T11:17:21.829Z,1192
2017-02-20T11:18:21.407Z,1076
2017-02-20T11:19:22.184Z,1228
2017-02-20T11:20:21.778Z,1144
2017-02-20T11:21:22.155Z,1132
2017-02-20T11:22:21.782Z,1108
2017-02-20T11:23:21.706Z,1092
2017-02-20T11:24:21.693Z,1080
2017-02-20T11:25:21.652Z,1112
2017-02-20T11:26:21.631Z,996
2017-02-20T11:27:22.022Z,1044
2017-02-20T11:28:22.348Z,1104
2017-02-20T11:29:21.560Z,1368
2017-02-20T11:30:21.939Z,1312
2017-02-20T11:31:21.510Z,1288
2017-02-20T11:32:22.297Z,1228
2017-02-20T11:33:21.931Z,1228
2017-02-20T11:34:21.919Z,1192
2017-02-20T11:35:21.429Z,1160
2017-02-20T11:36:21.488Z,1132
2017-02-20T11:37:21.787Z,1100
2017-02-20T11:38:22.147Z,1148
2017-02-20T11:39:22.117Z,1132
2017-02-20T11:40:21.712Z,1092
2017-02-20T11:41:21.802Z,1116
2017-02-20T11:42:21.777Z,1232
2017-02-20T11:43:22.033Z,1228
2017-02-20T11:44:21.740Z,1176
2017-02-20T11:45:22.010Z,1136
2017-02-20T11:46:21.601Z,1192
2017-02-20T11:47:21.182Z,1388
2017-02-20T11:48:21.949Z,1320
2017-02-20T11:49:21.521Z,1240
2017-02-20T11:50:21.161Z,1176
2017-02-20T11:51:21.498Z,1204
2017-02-20T11:52:21.179Z,1160
2017-02-20T11:53:21.840Z,1144
2017-02-20T11:54:21.798Z,1240
2017-02-20T11:55:21.394Z,1152
2017-02-20T11:56:21.384Z,1204
2017-02-20T11:57:21.748Z,1200
2017-02-20T11:58:20.557Z,1156
2017-02-20T11:59:20.949Z,1376
2017-02-20T12:00:21.685Z,1328
2017-02-20T12:01:21.284Z,1244
2017-02-20T12:02:20.844Z,1224
2017-02-20T12:03:21.224Z,1236
2017-02-20T12:04:21.220Z,1320
2017-02-20T12:05:20.401Z,1368
2017-02-20T12:06:21.232Z,1368
2017-02-20T12:07:21.520Z,1540
2017-02-20T12:08:21.512Z,1432
2017-02-20T12:09:21.107Z,1472
2017-02-20T12:10:20.740Z,1488
2017-02-20T12:11:20.678Z,1744
2017-02-20T12:12:21.473Z,1864
2017-02-20T12:13:21.403Z,1788
2017-02-20T12:14:21.441Z,1620
2017-02-20T12:15:21.021Z,1640
2017-02-20T12:16:21.397Z,1676
2017-02-20T12:17:20.922Z,1552
2017-02-20T12:18:20.924Z,1468
2017-02-20T12:19:20.516Z,1504
2017-02-20T12:20:21.307Z,1568
2017-02-20T12:21:20.845Z,1676
2017-02-20T12:22:20.464Z,1640
2017-02-20T12:23:21.195Z,1708
2017-02-20T12:24:20.403Z,1668
2017-02-20T12:25:20.742Z,1660
2017-02-20T12:26:20.410Z,1932
2017-02-20T12:27:19.944Z,1724
2017-02-20T12:28:21.112Z,1816
2017-02-20T12:29:21.068Z,1740
2017-02-20T12:30:20.659Z,1420
2017-02-20T12:31:20.633Z,1448
2017-02-20T12:32:20.220Z,1352
2017-02-20T12:33:20.598Z,1340
2017-02-20T12:34:20.978Z,1324
2017-02-20T12:35:20.965Z,1156
2017-02-20T12:36:20.587Z,1048
2017-02-20T12:37:20.901Z,1156
2017-02-20T12:38:20.115Z,1140
2017-02-20T12:39:20.481Z,1028
2017-02-20T12:40:20.530Z,1108
2017-02-20T12:41:20.493Z,1096
2017-02-20T12:42:20.504Z,1088
2017-02-20T12:43:19.982Z,1104
2017-02-20T12:44:20.423Z,1072
2017-02-20T12:45:20.724Z,1136
2017-02-20T12:46:20.371Z,1128
2017-02-20T12:47:20.351Z,1068
2017-02-20T12:48:20.671Z,1072
2017-02-20T12:49:20.632Z,1072
2017-02-20T12:50:20.621Z,1192
2017-02-20T12:51:20.238Z,1140
2017-02-20T12:52:20.208Z,1192
2017-02-20T12:53:20.197Z,1328
2017-02-20T12:54:19.857Z,1504
2017-02-20T12:55:20.117Z,1400
2017-02-20T12:56:20.132Z,1304
2017-02-20T12:57:20.094Z,1500
2017-02-20T12:58:20.070Z,1344
2017-02-20T12:59:20.448Z,1420
2017-02-20T13:00:20.022Z,1472
2017-02-20T13:01:19.616Z,1540
2017-02-20T13:02:19.228Z,1576
2017-02-20T13:03:20.016Z,1368
2017-02-20T13:04:20.320Z,1508
2017-02-20T13:05:19.998Z,1496
2017-02-20T13:06:19.888Z,1432
2017-02-20T13:07:19.496Z,1500
2017-02-20T13:08:19.864Z,1424
2017-02-20T13:09:19.828Z,1396
2017-02-20T13:10:20.198Z,1336
2017-02-20T13:11:20.199Z,1368
2017-02-20T13:12:20.146Z,1268
2017-02-20T13:13:20.147Z,1336
2017-02-20T13:14:20.118Z,1228
2017-02-20T13:15:20.091Z,1272
2017-02-20T13:16:19.681Z,1120
2017-02-20T13:17:20.066Z,1108
2017-02-20T13:18:19.264Z,1040
2017-02-20T13:19:19.237Z,968
2017-02-20T13:20:19.591Z,1124
2017-02-20T13:21:19.973Z,948
2017-02-20T13:22:19.942Z,984
2017-02-20T13:23:19.162Z,1044
2017-02-20T13:24:19.522Z,1004
2017-02-20T13:25:19.490Z,1000
2017-02-20T13:26:19.480Z,944
2017-02-20T13:27:19.075Z,1024
2017-02-20T13:28:19.439Z,928
2017-02-20T13:29:19.798Z,1044
2017-02-20T13:30:19.388Z,984
2017-02-20T13:31:18.984Z,964
2017-02-20T13:32:18.957Z,900
2017-02-20T13:33:19.728Z,876
2017-02-20T13:34:19.316Z,884
2017-02-20T13:35:19.688Z,968
2017-02-20T13:36:18.923Z,1080
2017-02-20T13:37:19.270Z,1312
2017-02-20T13:38:19.248Z,1188
2017-02-20T13:39:19.613Z,1372
2017-02-20T13:40:18.813Z,1268
2017-02-20T13:41:19.198Z,1156
2017-02-20T13:42:19.162Z,1044
2017-02-20T13:43:18.743Z,1036
2017-02-20T13:44:19.101Z,932
2017-02-20T13:45:19.085Z,1012
2017-02-20T13:46:19.064Z,1140
2017-02-20T13:47:19.461Z,1052
2017-02-20T13:48:19.021Z,996
2017-02-20T13:49:19.388Z,984
2017-02-20T13:50:19.377Z,944
2017-02-20T13:51:18.573Z,884
2017-02-20T13:52:18.589Z,840
2017-02-20T13:53:18.935Z,804
2017-02-20T13:54:18.884Z,792
2017-02-20T13:55:18.862Z,740
2017-02-20T13:56:18.461Z,748
2017-02-20T13:57:19.206Z,704
2017-02-20T13:58:18.473Z,716
2017-02-20T13:59:18.784Z,752
2017-02-20T14:00:19.362Z,804
2017-02-20T14:01:18.762Z,820
2017-02-20T14:02:18.341Z,804
2017-02-20T14:03:19.110Z,784
2017-02-20T14:04:18.730Z,840
2017-02-20T14:05:19.061Z,840
2017-02-20T14:06:18.670Z,824
2017-02-20T14:07:18.238Z,928